createdAt,value
2018-11-23T00:00:37.888Z,91.50
2018-11-23T00:01:16.595Z,91.50
2018-11-23T00:01:54.658Z,91.50
2018-11-23T00:02:32.802Z,91.50
2018-11-23T00:03:10.873Z,91.50
2018-11-23T00:03:48.798Z,91.50
2018-11-23T00:04:26.728Z,91.50
2018-11-23T00:05:04.783Z,91.50
2018-11-23T00:05:42.778Z,91.50
2018-11-23T00:06:20.826Z,91.50
2018-11-23T00:06:58.839Z,91.50
2018-11-23T00:07:37.001Z,91.50
2018-11-23T00:08:15.237Z,91.50
2018-11-23T00:08:53.144Z,91.50
2018-11-23T00:09:31.104Z,91.50
2018-11-23T00:10:11.153Z,91.50
2018-11-23T00:10:48.626Z,91.60
2018-11-23T00:11:26.637Z,91.60
2018-11-23T00:12:04.466Z,91.60
2018-11-23T00:12:42.675Z,91.60
2018-11-23T00:13:20.525Z,91.60
2018-11-23T00:13:58.777Z,91.60
2018-11-23T00:14:36.669Z,91.60
2018-11-23T00:15:16.482Z,91.60
2018-11-23T00:15:54.345Z,91.60
2018-11-23T00:16:32.311Z,91.60
2018-11-23T00:17:10.262Z,91.60
2018-11-23T00:17:48.581Z,91.60
2018-11-23T00:18:26.702Z,91.50
2018-11-23T00:19:04.628Z,91.50
2018-11-23T00:19:42.641Z,91.50
2018-11-23T00:20:24.562Z,91.40
2018-11-23T00:21:02.404Z,91.40
2018-11-23T00:21:40.597Z,91.40
2018-11-23T00:22:18.538Z,91.40
2018-11-23T00:22:56.496Z,91.70
2018-11-23T00:23:34.285Z,91.40
2018-11-23T00:24:12.156Z,91.40
2018-11-23T00:24:50.300Z,91.40
2018-11-23T00:25:28.996Z,91.40
2018-11-23T00:26:07.025Z,91.40
2018-11-23T00:26:45.038Z,91.40
2018-11-23T00:27:23.031Z,91.30
2018-11-23T00:28:01.121Z,91.30
2018-11-23T00:28:39.214Z,91.30
2018-11-23T00:29:17.498Z,91.30
2018-11-23T00:29:55.814Z,91.60
2018-11-23T00:30:33.826Z,91.30
2018-11-23T00:31:11.840Z,91.20
2018-11-23T00:31:51.558Z,91.20
2018-11-23T00:32:29.701Z,91.10
2018-11-23T00:33:07.554Z,91.10
2018-11-23T00:33:45.409Z,91.10
2018-11-23T00:34:25.165Z,91.10
2018-11-23T00:35:03.065Z,91.00
2018-11-23T00:35:40.944Z,91.30
2018-11-23T00:36:19.083Z,91.00
2018-11-23T00:36:57.197Z,91.10
2018-11-23T00:37:35.378Z,91.10
2018-11-23T00:38:13.439Z,91.10
2018-11-23T00:38:51.548Z,91.20
2018-11-23T00:39:29.596Z,91.10
2018-11-23T00:40:07.897Z,91.10
2018-11-23T00:40:46.033Z,91.20
2018-11-23T00:41:24.026Z,91.20
2018-11-23T00:42:01.995Z,91.30
2018-11-23T00:42:40.295Z,91.20
2018-11-23T00:43:18.136Z,91.20
2018-11-23T00:43:56.281Z,91.10
2018-11-23T00:44:34.309Z,91.10
2018-11-23T00:45:14.516Z,91.10
2018-11-23T00:45:52.739Z,91.10
2018-11-23T00:46:30.641Z,91.40
2018-11-23T00:47:08.584Z,91.10
2018-11-23T00:47:47.260Z,91.10
2018-11-23T00:48:25.381Z,91.00
2018-11-23T00:49:03.317Z,91.00
2018-11-23T00:49:42.026Z,91.00
2018-11-23T00:50:21.553Z,91.00
2018-11-23T00:50:59.526Z,90.80
2018-11-23T00:51:38.518Z,90.50
2018-11-23T00:52:16.482Z,90.40
2018-11-23T00:52:55.243Z,90.40
2018-11-23T00:53:33.399Z,90.40
2018-11-23T00:54:11.521Z,90.40
2018-11-23T00:54:49.465Z,90.30
2018-11-23T00:55:28.187Z,90.10
2018-11-23T00:56:06.361Z,90.00
2018-11-23T00:56:44.566Z,89.60
2018-11-23T00:57:22.704Z,89.50
2018-11-23T00:58:00.777Z,89.40
2018-11-23T00:58:38.675Z,89.20
2018-11-23T00:59:16.691Z,89.30
2018-11-23T00:59:54.836Z,89.20
2018-11-23T01:00:35.652Z,89.40
2018-11-23T01:01:13.676Z,89.40
2018-11-23T01:02:08.702Z,89.50
2018-11-23T01:02:47.156Z,89.50
2018-11-23T01:03:25.056Z,89.60
2018-11-23T01:04:03.048Z,89.60
2018-11-23T01:04:41.266Z,89.80
2018-11-23T01:05:20.049Z,89.90
2018-11-23T01:05:58.297Z,89.90
2018-11-23T01:06:36.329Z,89.90
2018-11-23T01:07:14.172Z,89.90
2018-11-23T01:07:52.159Z,89.60
2018-11-23T01:08:30.042Z,89.50
2018-11-23T01:09:10.669Z,89.50
2018-11-23T01:09:48.654Z,89.40
2018-11-23T01:10:28.693Z,89.10
2018-11-23T01:11:06.544Z,88.90
2018-11-23T01:11:45.533Z,88.70
2018-11-23T01:12:24.009Z,88.60
2018-11-23T01:13:02.133Z,88.60
2018-11-23T01:13:40.099Z,88.60
2018-11-23T01:14:17.912Z,88.50
2018-11-23T01:14:55.863Z,87.90
2018-11-23T01:15:33.865Z,88.00
2018-11-23T01:16:11.900Z,87.90
2018-11-23T01:16:49.839Z,88.00
2018-11-23T01:17:27.957Z,87.80
2018-11-23T01:18:06.129Z,87.80
2018-11-23T01:18:44.042Z,87.80
2018-11-23T01:19:23.264Z,87.60
2018-11-23T01:20:01.360Z,87.50
2018-11-23T01:20:40.011Z,87.50
2018-11-23T01:21:18.168Z,87.40
2018-11-23T01:21:56.208Z,87.30
2018-11-23T01:22:34.010Z,87.30
2018-11-23T01:23:12.007Z,87.30
2018-11-23T01:23:50.097Z,87.30
2018-11-23T01:24:28.129Z,87.50
2018-11-23T01:25:06.166Z,87.60
2018-11-23T01:25:47.067Z,87.60
2018-11-23T01:26:24.989Z,87.50
2018-11-23T01:27:03.132Z,87.40
2018-11-23T01:27:42.066Z,87.40
2018-11-23T01:28:19.919Z,87.50
2018-11-23T01:28:57.913Z,87.50
2018-11-23T01:29:35.746Z,87.40
2018-11-23T01:30:19.740Z,87.50
2018-11-23T01:30:58.046Z,87.30
2018-11-23T01:31:36.009Z,87.10
2018-11-23T01:32:14.647Z,87.00
2018-11-23T01:32:52.959Z,86.90
2018-11-23T01:33:30.947Z,86.90
2018-11-23T01:34:09.036Z,87.00
2018-11-23T01:35:29.544Z,87.00
2018-11-23T01:36:07.661Z,87.50
2018-11-23T01:36:46.554Z,86.80
2018-11-23T01:37:24.644Z,86.70
2018-11-23T01:38:02.393Z,86.60
2018-11-23T01:38:40.432Z,86.60
2018-11-23T01:39:18.348Z,86.30
2018-11-23T01:39:56.461Z,86.30
2018-11-23T01:40:34.412Z,86.30
2018-11-23T01:41:12.363Z,86.20
2018-11-23T01:41:50.216Z,86.20
2018-11-23T01:42:28.096Z,86.30
2018-11-23T01:43:06.095Z,86.10
2018-11-23T01:43:44.023Z,86.10
2018-11-23T01:44:21.863Z,85.90
2018-11-23T01:45:00.173Z,85.50
2018-11-23T01:45:37.985Z,85.60
2018-11-23T01:46:16.201Z,85.00
2018-11-23T01:46:54.526Z,85.00
2018-11-23T01:47:32.506Z,84.50
2018-11-23T01:48:10.661Z,84.30
2018-11-23T01:48:48.597Z,84.30
2018-11-23T01:49:26.685Z,84.30
2018-11-23T01:50:05.076Z,83.90
2018-11-23T01:50:43.452Z,83.50
2018-11-23T01:51:21.491Z,83.50
2018-11-23T01:51:59.388Z,83.60
2018-11-23T01:52:37.407Z,83.60
2018-11-23T01:53:15.365Z,83.60
2018-11-23T01:53:53.650Z,83.50
2018-11-23T01:54:31.664Z,83.70
2018-11-23T01:55:10.528Z,83.60
2018-11-23T01:55:48.497Z,83.50
2018-11-23T01:56:26.440Z,83.40
2018-11-23T01:57:04.484Z,83.50
2018-11-23T01:57:43.081Z,83.40
2018-11-23T01:58:20.994Z,83.20
2018-11-23T01:58:59.513Z,83.20
2018-11-23T01:59:37.479Z,83.00
2018-11-23T02:00:21.330Z,83.00
2018-11-23T02:00:59.794Z,82.80
2018-11-23T02:01:37.903Z,82.80
2018-11-23T02:02:15.794Z,82.80
2018-11-23T02:02:55.375Z,82.70
2018-11-23T02:03:33.545Z,82.60
2018-11-23T02:04:11.534Z,82.80
2018-11-23T02:04:50.297Z,82.30
2018-11-23T02:05:28.828Z,82.30
2018-11-23T02:06:20.278Z,82.10
2018-11-23T02:07:05.487Z,81.70
2018-11-23T02:07:44.104Z,80.70
2018-11-23T02:08:27.633Z,80.60
2018-11-23T02:09:07.358Z,79.40
2018-11-23T02:09:45.751Z,78.10
2018-11-23T02:10:25.147Z,77.50
2018-11-23T02:11:07.947Z,77.60
2018-11-23T02:11:45.957Z,77.30
2018-11-23T02:12:26.317Z,77.70
2018-11-23T02:13:05.212Z,77.10
2018-11-23T02:13:43.691Z,75.40
2018-11-23T02:14:23.967Z,74.60
2018-11-23T02:15:02.002Z,74.40
2018-11-23T02:15:40.493Z,74.30
2018-11-23T02:16:18.473Z,74.10
2018-11-23T02:16:56.555Z,74.00
2018-11-23T02:17:34.876Z,74.00
2018-11-23T02:18:13.011Z,73.80
2018-11-23T02:18:51.494Z,73.20
2018-11-23T02:19:29.409Z,72.50
2018-11-23T02:20:07.664Z,71.40
2018-11-23T02:20:46.730Z,71.20
2018-11-23T02:21:24.693Z,71.10
2018-11-23T02:22:02.754Z,71.30
2018-11-23T02:22:40.670Z,71.00
2018-11-23T02:23:19.204Z,70.30
2018-11-23T02:23:57.184Z,69.10
2018-11-23T02:24:35.091Z,68.60
2018-11-23T02:25:12.936Z,68.40
2018-11-23T02:25:50.862Z,68.60
2018-11-23T02:26:28.865Z,68.10
2018-11-23T02:27:06.943Z,67.10
2018-11-23T02:27:44.929Z,66.00
2018-11-23T02:28:22.849Z,66.20
2018-11-23T02:29:02.530Z,66.30
2018-11-23T02:29:40.621Z,66.20
2018-11-23T02:30:26.063Z,66.10
2018-11-23T02:31:10.442Z,66.60
2018-11-23T02:31:48.565Z,67.50
2018-11-23T02:32:26.764Z,68.00
2018-11-23T02:33:05.428Z,67.50
2018-11-23T02:33:43.700Z,67.60
2018-11-23T02:34:22.008Z,68.70
2018-11-23T02:35:01.403Z,65.90
2018-11-23T02:36:29.441Z,64.80
2018-11-23T02:37:07.339Z,65.30
2018-11-23T02:37:46.303Z,65.50
2018-11-23T02:38:24.084Z,65.60
2018-11-23T02:39:02.142Z,65.30
2018-11-23T02:39:40.232Z,65.30
2018-11-23T02:40:19.580Z,65.60
2018-11-23T02:40:57.464Z,65.70
2018-11-23T02:41:35.421Z,65.70
2018-11-23T02:42:14.133Z,66.30
2018-11-23T02:42:52.069Z,66.50
2018-11-23T02:43:29.985Z,66.70
2018-11-23T02:44:08.149Z,66.80
2018-11-23T02:44:46.140Z,67.00
2018-11-23T02:45:25.218Z,67.00
2018-11-23T02:46:03.505Z,67.20
2018-11-23T02:46:41.457Z,67.90
2018-11-23T02:47:19.648Z,67.10
2018-11-23T02:47:57.813Z,67.40
2018-11-23T02:48:35.856Z,67.50
2018-11-23T02:49:14.018Z,67.70
2018-11-23T02:49:51.996Z,67.70
2018-11-23T02:50:30.008Z,66.40
2018-11-23T02:51:08.107Z,66.40
2018-11-23T02:51:45.997Z,66.30
2018-11-23T02:52:23.995Z,66.30
2018-11-23T02:53:01.961Z,65.40
2018-11-23T02:53:39.850Z,65.10
2018-11-23T02:54:17.810Z,64.90
2018-11-23T02:54:55.684Z,64.70
2018-11-23T02:55:33.674Z,65.00
2018-11-23T02:56:11.492Z,64.70
2018-11-23T02:56:49.870Z,64.20
2018-11-23T02:57:27.809Z,64.40
2018-11-23T02:58:05.892Z,63.70
2018-11-23T02:58:43.963Z,64.20
2018-11-23T02:59:23.977Z,64.20
2018-11-23T03:00:00.018Z,64.30
2018-11-23T03:00:39.152Z,64.40
2018-11-23T03:01:17.176Z,64.20
2018-11-23T03:01:55.360Z,64.50
2018-11-23T03:02:33.329Z,64.60
2018-11-23T03:03:11.284Z,64.30
2018-11-23T03:03:49.313Z,64.00
2018-11-23T03:04:27.612Z,64.10
2018-11-23T03:05:05.643Z,64.30
2018-11-23T03:05:43.664Z,64.70
2018-11-23T03:06:21.604Z,64.60
2018-11-23T03:06:59.528Z,64.60
2018-11-23T03:07:37.640Z,64.20
2018-11-23T03:08:15.612Z,64.40
2018-11-23T03:08:53.676Z,64.80
2018-11-23T03:09:31.672Z,65.00
2018-11-23T03:10:10.676Z,65.20
2018-11-23T03:10:48.472Z,64.90
2018-11-23T03:11:26.246Z,65.00
2018-11-23T03:12:04.188Z,65.00
2018-11-23T03:12:42.732Z,65.10
2018-11-23T03:13:20.737Z,65.30
2018-11-23T03:13:58.919Z,65.50
2018-11-23T03:14:36.850Z,65.70
2018-11-23T03:15:16.425Z,66.00
2018-11-23T03:15:54.233Z,66.00
2018-11-23T03:16:32.375Z,66.10
2018-11-23T03:17:10.282Z,66.40
2018-11-23T03:17:48.672Z,66.90
2018-11-23T03:18:26.741Z,66.80
2018-11-23T03:19:04.646Z,66.60
2018-11-23T03:19:42.575Z,66.50
2018-11-23T03:20:22.696Z,66.40
2018-11-23T03:21:00.676Z,66.30
2018-11-23T03:21:38.789Z,66.20
2018-11-23T03:22:16.743Z,66.30
2018-11-23T03:22:54.630Z,66.30
2018-11-23T03:23:32.700Z,66.10
2018-11-23T03:24:10.520Z,66.10
2018-11-23T03:24:48.435Z,66.00
2018-11-23T03:25:26.374Z,65.70
2018-11-23T03:26:04.460Z,65.80
2018-11-23T03:26:42.572Z,66.20
2018-11-23T03:27:20.575Z,66.10
2018-11-23T03:27:59.481Z,65.90
2018-11-23T03:28:37.546Z,65.80
2018-11-23T03:29:15.771Z,66.10
2018-11-23T03:29:53.669Z,66.30
2018-11-23T03:30:31.633Z,66.10
2018-11-23T03:31:12.506Z,65.90
2018-11-23T03:31:48.123Z,66.00
2018-11-23T03:32:26.091Z,66.10
2018-11-23T03:33:03.995Z,66.20
2018-11-23T03:33:41.887Z,66.10
2018-11-23T03:34:19.738Z,66.00
2018-11-23T03:34:57.668Z,65.70
2018-11-23T03:35:35.569Z,65.70
2018-11-23T03:36:14.345Z,65.40
2018-11-23T03:36:52.294Z,65.40
2018-11-23T03:37:30.508Z,65.20
2018-11-23T03:38:08.304Z,65.80
2018-11-23T03:38:46.330Z,66.00
2018-11-23T03:39:24.187Z,65.80
2018-11-23T03:40:02.306Z,66.00
2018-11-23T03:40:40.290Z,66.70
2018-11-23T03:41:18.409Z,66.10
2018-11-23T03:41:56.496Z,66.20
2018-11-23T03:42:34.466Z,66.30
2018-11-23T03:43:12.861Z,65.80
2018-11-23T03:43:50.744Z,65.30
2018-11-23T03:44:28.980Z,66.10
2018-11-23T03:45:07.358Z,65.60
2018-11-23T03:45:45.429Z,65.90
2018-11-23T03:46:23.411Z,66.00
2018-11-23T03:47:01.421Z,66.00
2018-11-23T03:47:39.271Z,66.20
2018-11-23T03:48:17.174Z,66.30
2018-11-23T03:48:55.313Z,66.50
2018-11-23T03:49:33.324Z,66.80
2018-11-23T03:50:12.827Z,66.80
2018-11-23T03:50:50.806Z,66.80
2018-11-23T03:51:28.825Z,66.70
2018-11-23T03:52:07.265Z,66.60
2018-11-23T03:52:45.692Z,66.50
2018-11-23T03:53:23.523Z,66.70
2018-11-23T03:54:01.539Z,66.80
2018-11-23T03:54:39.486Z,66.90
2018-11-23T03:55:17.708Z,66.90
2018-11-23T03:55:55.790Z,67.10
2018-11-23T03:56:33.673Z,67.30
2018-11-23T03:57:11.841Z,67.10
2018-11-23T03:57:50.000Z,67.10
2018-11-23T03:58:28.029Z,67.10
2018-11-23T03:59:05.914Z,66.90
2018-11-23T03:59:44.026Z,66.80
2018-11-23T04:00:23.195Z,66.80
2018-11-23T04:01:01.180Z,66.50
2018-11-23T04:01:39.114Z,66.70
2018-11-23T04:02:16.952Z,66.80
2018-11-23T04:02:55.018Z,66.90
2018-11-23T04:03:33.088Z,66.80
2018-11-23T04:04:11.052Z,67.00
2018-11-23T04:04:49.120Z,66.80
2018-11-23T04:05:27.156Z,66.70
2018-11-23T04:06:05.285Z,66.80
2018-11-23T04:06:43.132Z,66.80
2018-11-23T04:07:21.043Z,66.60
2018-11-23T04:07:58.960Z,66.40
2018-11-23T04:08:36.812Z,66.10
2018-11-23T04:09:14.889Z,65.60
2018-11-23T04:09:52.771Z,65.80
2018-11-23T04:10:32.144Z,65.50
2018-11-23T04:11:10.227Z,65.40
2018-11-23T04:11:48.173Z,65.40
2018-11-23T04:12:26.156Z,65.40
2018-11-23T04:13:04.454Z,66.00
2018-11-23T04:13:42.395Z,65.00
2018-11-23T04:14:21.126Z,65.10
2018-11-23T04:14:59.164Z,65.30
2018-11-23T04:15:37.496Z,65.30
2018-11-23T04:16:15.461Z,65.20
2018-11-23T04:16:53.260Z,65.10
2018-11-23T04:17:31.297Z,65.00
2018-11-23T04:18:09.249Z,65.10
2018-11-23T04:18:47.175Z,65.40
2018-11-23T04:19:26.482Z,65.60
2018-11-23T04:20:04.439Z,65.50
2018-11-23T04:20:42.435Z,65.50
2018-11-23T04:21:20.347Z,65.60
2018-11-23T04:21:58.230Z,65.70
2018-11-23T04:22:36.208Z,65.40
2018-11-23T04:23:14.137Z,65.40
2018-11-23T04:23:52.337Z,65.30
2018-11-23T04:24:30.247Z,65.30
2018-11-23T04:25:08.383Z,65.40
2018-11-23T04:25:46.384Z,65.70
2018-11-23T04:26:24.745Z,65.70
2018-11-23T04:27:02.838Z,65.60
2018-11-23T04:27:40.806Z,65.30
2018-11-23T04:28:19.692Z,65.50
2018-11-23T04:28:57.527Z,66.00
2018-11-23T04:29:35.504Z,65.50
2018-11-23T04:33:15.322Z,64.80
2018-11-23T04:33:53.385Z,64.90
2018-11-23T04:34:31.286Z,65.00
2018-11-23T04:35:11.187Z,65.10
2018-11-23T04:35:49.370Z,65.40
2018-11-23T04:36:28.314Z,65.40
2018-11-23T04:37:06.172Z,65.30
2018-11-23T04:37:45.077Z,65.60
2018-11-23T04:38:23.052Z,65.30
2018-11-23T04:39:01.022Z,65.30
2018-11-23T04:39:38.845Z,65.30
2018-11-23T04:40:17.688Z,65.40
2018-11-23T04:40:55.699Z,65.40
2018-11-23T04:41:33.844Z,65.40
2018-11-23T04:42:11.728Z,65.80
2018-11-23T04:42:49.555Z,65.90
2018-11-23T04:43:27.802Z,65.90
2018-11-23T04:44:05.797Z,66.00
2018-11-23T04:44:43.595Z,65.50
2018-11-23T04:45:21.743Z,65.80
2018-11-23T04:45:59.680Z,65.10
2018-11-23T04:46:37.560Z,64.90
2018-11-23T04:47:15.501Z,64.50
2018-11-23T04:47:53.389Z,64.60
2018-11-23T04:48:31.314Z,64.80
2018-11-23T04:49:09.581Z,64.90
2018-11-23T04:49:47.777Z,65.00
2018-11-23T04:50:25.872Z,65.40
2018-11-23T04:51:03.937Z,65.30
2018-11-23T04:51:41.870Z,64.90
2018-11-23T04:52:19.630Z,64.00
2018-11-23T04:52:57.500Z,63.90
2018-11-23T04:53:35.656Z,64.00
2018-11-23T04:54:14.511Z,63.70
2018-11-23T04:54:52.876Z,63.80
2018-11-23T04:55:31.195Z,63.80
2018-11-23T04:56:09.405Z,64.40
2018-11-23T04:56:47.522Z,64.50
2018-11-23T04:57:25.476Z,64.80
2018-11-23T04:58:03.343Z,64.80
2018-11-23T04:58:41.169Z,65.30
2018-11-23T04:59:20.203Z,64.90
2018-11-23T04:59:58.367Z,65.00
2018-11-23T05:00:36.151Z,64.70
2018-11-23T05:01:14.502Z,64.90
2018-11-23T05:01:52.588Z,64.90
2018-11-23T05:02:30.513Z,65.70
2018-11-23T05:03:08.613Z,64.90
2018-11-23T05:03:46.568Z,65.00
2018-11-23T05:04:25.530Z,65.00
2018-11-23T05:05:03.390Z,64.80
2018-11-23T05:05:41.418Z,65.20
2018-11-23T05:06:19.298Z,65.30
2018-11-23T05:06:57.198Z,64.60
2018-11-23T05:07:35.286Z,64.20
2018-11-23T05:08:13.188Z,63.90
2018-11-23T05:08:51.539Z,63.00
2018-11-23T05:09:29.652Z,62.50
2018-11-23T05:10:07.991Z,61.90
2018-11-23T05:10:46.043Z,61.50
2018-11-23T05:11:24.079Z,61.40
2018-11-23T05:12:02.053Z,61.40
2018-11-23T05:12:40.001Z,62.10
2018-11-23T05:13:18.231Z,62.10
2018-11-23T05:13:56.380Z,62.10
2018-11-23T05:14:34.273Z,62.10
2018-11-23T05:15:13.422Z,61.60
2018-11-23T05:15:51.452Z,61.40
2018-11-23T05:16:29.482Z,61.50
2018-11-23T05:17:07.392Z,62.00
2018-11-23T05:17:45.764Z,62.30
2018-11-23T05:18:23.638Z,62.50
2018-11-23T05:19:01.560Z,63.10
2018-11-23T05:19:39.437Z,63.40
2018-11-23T05:20:17.824Z,63.10
2018-11-23T05:20:55.894Z,63.30
2018-11-23T05:21:33.886Z,63.70
2018-11-23T05:22:11.780Z,62.00
2018-11-23T05:22:49.714Z,62.00
2018-11-23T05:23:27.617Z,62.00
2018-11-23T05:24:05.878Z,61.80
2018-11-23T05:24:44.227Z,61.80
2018-11-23T05:25:22.391Z,62.00
2018-11-23T05:26:00.284Z,62.00
2018-11-23T05:26:38.240Z,61.80
2018-11-23T05:27:16.330Z,61.80
2018-11-23T05:27:54.293Z,62.00
2018-11-23T05:28:32.181Z,62.10
2018-11-23T05:29:10.412Z,62.70
2018-11-23T05:29:51.483Z,62.60
2018-11-23T05:30:29.430Z,62.80
2018-11-23T05:31:07.462Z,62.60
2018-11-23T05:31:45.565Z,63.30
2018-11-23T05:32:23.652Z,63.20
2018-11-23T05:33:01.558Z,62.70
2018-11-23T05:33:39.634Z,62.00
2018-11-23T05:34:17.493Z,61.70
2018-11-23T05:34:56.101Z,61.80
2018-11-23T05:35:34.297Z,61.90
2018-11-23T05:36:12.980Z,62.20
2018-11-23T05:36:51.139Z,62.20
2018-11-23T05:37:28.986Z,62.30
2018-11-23T05:38:06.844Z,62.80
2018-11-23T05:38:44.778Z,62.50
2018-11-23T05:39:22.704Z,62.30
2018-11-23T05:40:00.802Z,62.70
2018-11-23T05:40:38.689Z,62.50
2018-11-23T05:41:16.632Z,62.70
2018-11-23T05:41:54.455Z,62.50
2018-11-23T05:42:32.446Z,62.90
2018-11-23T05:43:10.481Z,63.20
2018-11-23T05:43:48.389Z,63.10
2018-11-23T05:44:26.297Z,63.80
2018-11-23T05:45:04.419Z,63.70
2018-11-23T05:45:42.411Z,63.70
2018-11-23T05:46:20.553Z,63.90
2018-11-23T05:46:58.548Z,63.70
2018-11-23T05:47:36.485Z,63.70
2018-11-23T05:48:14.379Z,63.90
2018-11-23T05:48:52.822Z,64.40
2018-11-23T05:49:30.848Z,64.40
2018-11-23T05:50:10.524Z,64.50
2018-11-23T05:50:48.577Z,64.60
2018-11-23T05:51:26.677Z,64.80
2018-11-23T05:52:04.941Z,64.80
2018-11-23T05:52:43.332Z,64.70
2018-11-23T05:53:22.228Z,64.90
2018-11-23T05:54:00.080Z,65.00
2018-11-23T05:54:38.107Z,65.10
2018-11-23T05:55:16.402Z,65.20
2018-11-23T05:55:54.382Z,65.30
2018-11-23T05:56:32.289Z,65.40
2018-11-23T05:57:10.280Z,65.60
2018-11-23T05:57:48.226Z,65.50
2018-11-23T05:58:26.559Z,65.70
2018-11-23T05:59:04.635Z,65.60
2018-11-23T05:59:42.608Z,65.70
2018-11-23T06:00:24.686Z,65.60
2018-11-23T06:01:02.738Z,65.60
2018-11-23T06:01:40.883Z,65.70
2018-11-23T06:03:14.268Z,65.80
2018-11-23T06:03:52.201Z,65.90
2018-11-23T06:04:30.226Z,66.00
2018-11-23T06:05:08.878Z,65.90
2018-11-23T06:05:46.822Z,65.80
2018-11-23T06:06:25.850Z,65.80
2018-11-23T06:07:03.035Z,66.10
2018-11-23T06:07:41.095Z,66.20
2018-11-23T06:08:19.515Z,66.40
2018-11-23T06:08:57.386Z,66.30
2018-11-23T06:09:35.388Z,67.30
2018-11-23T06:10:17.227Z,66.60
2018-11-23T06:10:55.308Z,66.80
2018-11-23T06:11:33.204Z,66.70
2018-11-23T06:12:13.976Z,66.90
2018-11-23T06:12:52.308Z,66.80
2018-11-23T06:13:30.203Z,67.00
2018-11-23T06:14:08.282Z,67.00
2018-11-23T06:14:46.463Z,67.00
2018-11-23T06:15:25.492Z,67.80
2018-11-23T06:16:03.594Z,67.00
2018-11-23T06:16:41.619Z,67.00
2018-11-23T06:17:19.799Z,67.00
2018-11-23T06:17:58.105Z,66.90
2018-11-23T06:18:36.411Z,66.80
2018-11-23T06:19:14.532Z,66.80
2018-11-23T06:19:52.617Z,66.90
2018-11-23T06:20:30.563Z,67.10
2018-11-23T06:21:08.746Z,67.00
2018-11-23T06:21:46.554Z,66.70
2018-11-23T06:22:25.775Z,66.90
2018-11-23T06:23:03.609Z,66.90
2018-11-23T06:23:41.780Z,66.80
2018-11-23T06:24:19.543Z,66.50
2018-11-23T06:24:57.550Z,66.10
2018-11-23T06:25:39.267Z,66.00
2018-11-23T06:26:21.476Z,66.00
2018-11-23T06:26:59.417Z,66.20
2018-11-23T06:27:37.482Z,66.20
2018-11-23T06:28:15.541Z,66.40
2018-11-23T06:28:54.006Z,66.40
2018-11-23T06:29:31.945Z,66.40
2018-11-23T06:30:11.425Z,66.40
2018-11-23T06:30:49.396Z,66.70
2018-11-23T06:31:27.505Z,66.70
2018-11-23T06:32:05.431Z,66.70
2018-11-23T06:32:52.505Z,66.90
2018-11-23T06:33:36.241Z,66.90
2018-11-23T06:34:14.127Z,67.10
2018-11-23T06:34:52.129Z,67.10
2018-11-23T06:35:30.102Z,67.20
2018-11-23T06:36:08.301Z,67.20
2018-11-23T06:36:46.219Z,67.20
2018-11-23T06:37:24.340Z,67.20
2018-11-23T06:38:02.261Z,67.20
2018-11-23T06:38:40.494Z,67.20
2018-11-23T06:39:18.312Z,67.60
2018-11-23T06:39:56.321Z,67.30
2018-11-23T06:40:34.233Z,67.40
2018-11-23T06:41:13.423Z,67.30
2018-11-23T06:41:51.458Z,67.30
2018-11-23T06:42:29.329Z,67.30
2018-11-23T06:43:07.289Z,67.10
2018-11-23T06:43:45.436Z,67.10
2018-11-23T06:44:27.541Z,67.10
2018-11-23T06:45:05.547Z,67.40
2018-11-23T06:45:45.144Z,67.40
2018-11-23T06:46:23.328Z,67.40
2018-11-23T06:47:01.187Z,67.40
2018-11-23T06:47:39.134Z,67.40
2018-11-23T06:48:17.036Z,67.20
2018-11-23T06:48:55.337Z,67.30
2018-11-23T06:49:33.283Z,67.10
2018-11-23T06:50:16.533Z,67.00
2018-11-23T06:50:54.844Z,67.20
2018-11-23T06:51:32.782Z,67.20
2018-11-23T06:52:10.874Z,67.10
2018-11-23T06:52:48.823Z,66.90
2018-11-23T06:53:26.951Z,66.90
2018-11-23T06:54:05.131Z,67.00
2018-11-23T06:54:43.150Z,66.90
2018-11-23T06:55:21.271Z,67.00
2018-11-23T06:56:00.166Z,67.20
2018-11-23T06:57:41.569Z,67.10
2018-11-23T06:58:19.648Z,67.20
2018-11-23T06:58:57.693Z,67.20
2018-11-23T06:59:35.646Z,67.10
2018-11-23T07:00:16.827Z,67.20
2018-11-23T07:00:55.849Z,67.20
2018-11-23T07:01:33.981Z,67.20
2018-11-23T07:02:12.943Z,67.30
2018-11-23T07:02:51.704Z,67.20
2018-11-23T07:03:29.818Z,67.20
2018-11-23T07:04:07.757Z,67.40
2018-11-23T07:04:45.505Z,67.30
2018-11-23T07:05:23.390Z,67.30
2018-11-23T07:06:01.666Z,67.40
2018-11-23T07:06:39.681Z,67.40
2018-11-23T07:07:17.609Z,67.50
2018-11-23T07:07:55.497Z,67.40
2018-11-23T07:08:33.420Z,67.50
2018-11-23T07:09:12.305Z,67.80
2018-11-23T07:09:50.231Z,67.60
2018-11-23T07:10:28.292Z,68.40
2018-11-23T07:11:06.451Z,67.50
2018-11-23T07:11:44.671Z,67.50
2018-11-23T07:12:22.499Z,67.50
2018-11-23T07:13:00.520Z,66.90
2018-11-23T07:13:38.381Z,67.70
2018-11-23T07:14:16.629Z,67.70
2018-11-23T07:14:55.229Z,67.80
2018-11-23T07:15:33.304Z,67.80
2018-11-23T07:16:11.183Z,67.70
2018-11-23T07:16:49.214Z,67.80
2018-11-23T07:17:27.414Z,68.10
2018-11-23T07:18:06.866Z,68.30
2018-11-23T07:18:44.980Z,68.40
2018-11-23T07:19:23.123Z,68.50
2018-11-23T07:20:01.446Z,68.50
2018-11-23T07:20:39.283Z,69.10
2018-11-23T07:21:21.384Z,69.20
2018-11-23T07:21:59.887Z,69.30
2018-11-23T07:22:37.799Z,69.40
2018-11-23T07:23:15.710Z,69.50
2018-11-23T07:23:53.648Z,69.50
2018-11-23T07:24:31.534Z,69.40
2018-11-23T07:25:10.802Z,69.80
2018-11-23T07:25:48.742Z,69.80
2018-11-23T07:26:26.731Z,70.00
2018-11-23T07:27:05.148Z,70.10
2018-11-23T07:27:43.478Z,70.00
2018-11-23T07:28:21.607Z,70.00
2018-11-23T07:28:59.730Z,70.30
2018-11-23T07:29:38.579Z,70.00
2018-11-23T07:30:21.051Z,71.00
2018-11-23T07:31:02.504Z,70.30
2018-11-23T07:31:37.552Z,70.30
2018-11-23T07:32:15.499Z,70.10
2018-11-23T07:32:53.477Z,70.00
2018-11-23T07:33:31.392Z,70.00
2018-11-23T07:34:09.311Z,70.00
2018-11-23T07:34:47.242Z,70.10
2018-11-23T07:35:25.384Z,70.20
2018-11-23T07:36:03.418Z,70.60
2018-11-23T07:36:41.400Z,70.50
2018-11-23T07:37:19.351Z,70.50
2018-11-23T07:37:57.343Z,70.50
2018-11-23T07:38:35.228Z,70.80
2018-11-23T07:39:21.459Z,70.70
2018-11-23T07:40:08.927Z,70.60
2018-11-23T07:40:56.549Z,70.60
2018-11-23T07:41:43.521Z,71.00
2018-11-23T07:42:27.929Z,71.10
2018-11-23T07:43:05.876Z,71.00
2018-11-23T07:43:43.808Z,71.30
2018-11-23T07:44:21.724Z,71.10
2018-11-23T07:45:04.462Z,71.10
2018-11-23T07:45:42.318Z,71.40
2018-11-23T07:46:20.306Z,71.30
2018-11-23T07:46:58.456Z,71.30
2018-11-23T07:47:36.294Z,71.20
2018-11-23T07:48:14.237Z,71.40
2018-11-23T07:48:52.153Z,71.80
2018-11-23T07:49:30.029Z,72.40
2018-11-23T07:50:08.589Z,72.40
2018-11-23T07:50:50.966Z,72.50
2018-11-23T07:51:28.856Z,73.40
2018-11-23T07:52:06.922Z,72.80
2018-11-23T07:52:44.747Z,73.00
2018-11-23T07:53:22.719Z,73.10
2018-11-23T07:54:00.901Z,73.20
2018-11-23T07:54:38.854Z,73.10
2018-11-23T07:55:16.751Z,73.00
2018-11-23T07:55:55.045Z,73.20
2018-11-23T07:56:32.841Z,73.10
2018-11-23T07:57:11.534Z,73.10
2018-11-23T07:57:49.348Z,72.80
2018-11-23T07:58:27.368Z,72.80
2018-11-23T07:59:05.398Z,72.80
2018-11-23T07:59:43.422Z,72.80
2018-11-23T08:00:22.916Z,72.60
2018-11-23T08:01:01.982Z,72.70
2018-11-23T08:01:40.810Z,72.50
2018-11-23T08:02:18.894Z,72.30
2018-11-23T08:02:56.821Z,72.20
2018-11-23T08:03:34.743Z,72.00
2018-11-23T08:04:12.779Z,72.00
2018-11-23T08:04:50.703Z,72.00
2018-11-23T08:05:28.754Z,72.10
2018-11-23T08:06:06.703Z,72.10
2018-11-23T08:06:44.735Z,72.80
2018-11-23T08:07:23.038Z,71.90
2018-11-23T08:08:01.246Z,71.90
2018-11-23T08:08:39.183Z,71.70
2018-11-23T08:09:17.183Z,71.90
2018-11-23T08:09:55.049Z,72.00
2018-11-23T08:10:31.209Z,72.00
2018-11-23T08:11:10.427Z,72.00
2018-11-23T08:11:48.293Z,72.00
2018-11-23T08:12:26.210Z,72.00
2018-11-23T08:13:04.099Z,72.10
2018-11-23T08:13:42.095Z,72.20
2018-11-23T08:14:20.083Z,72.40
2018-11-23T08:14:57.954Z,72.30
2018-11-23T08:15:36.090Z,72.30
2018-11-23T08:16:14.160Z,72.30
2018-11-23T08:16:52.513Z,72.50
2018-11-23T08:17:30.451Z,72.70
2018-11-23T08:18:08.781Z,72.60
2018-11-23T08:18:46.773Z,72.70
2018-11-23T08:19:24.568Z,73.10
2018-11-23T08:20:02.438Z,73.20
2018-11-23T08:20:40.552Z,72.90
2018-11-23T08:21:18.714Z,73.00